sensor_id;sensor_type;location;lat;lon;timestamp;pressure;altitude;pressure_sealevel;temperature;humidity
66880;BME280;53789;51.392;10.234;2022-07-29T00:00:00;98421.34;;;17.18;46.25
66880;BME280;53789;51.392;10.234;2022-07-29T00:00:20;98419.38;;;17.18;46.01
66880;BME280;53789;51.392;10.234;2022-07-29T00:01:14;98417.41;;;17.19;46.24
66880;BME280;53789;51.392;10.234;2022-07-29T00:01:35;98416.25;;;17.20;45.94
66880;BME280;53789;51.392;10.234;2022-07-29T00:01:55;98421.81;;;17.20;46.24
66880;BME280;53789;51.392;10.234;2022-07-29T00:02:15;98423.75;;;17.19;46.03
66880;BME280;53789;51.392;10.234;2022-07-29T00:02:36;98418.22;;;17.19;45.89
66880;BME280;53789;51.392;10.234;2022-07-29T00:03:21;98412.66;;;17.19;45.98
66880;BME280;53789;51.392;10.234;2022-07-29T00:03:41;98415.44;;;17.19;45.69
66880;BME280;53789;51.392;10.234;2022-07-29T00:04:01;98411.84;;;17.19;45.78
66880;BME280;53789;51.392;10.234;2022-07-29T00:06:59;98418.22;;;17.19;46.45
66880;BME280;53789;51.392;10.234;2022-07-29T00:07:42;98408.28;;;17.18;46.45
66880;BME280;53789;51.392;10.234;2022-07-29T00:08:02;98410.22;;;17.18;46.10
66880;BME280;53789;51.392;10.234;2022-07-29T00:08:23;98420.19;;;17.19;46.17
66880;BME280;53789;51.392;10.234;2022-07-29T00:08:43;98408.63;;;17.17;45.75
66880;BME280;53789;51.392;10.234;2022-07-29T00:09:04;98411.41;;;17.17;45.76
66880;BME280;53789;51.392;10.234;2022-07-29T00:09:24;98412.19;;;17.17;46.07
66880;BME280;53789;51.392;10.234;2022-07-29T00:09:44;98407.78;;;17.16;46.00
66880;BME280;53789;51.392;10.234;2022-07-29T00:10:35;98407.00;;;17.16;46.34
66880;BME280;53789;51.392;10.234;2022-07-29T00:10:55;98409.75;;;17.16;46.50
66880;BME280;53789;51.392;10.234;2022-07-29T00:11:15;98412.53;;;17.16;46.37
66880;BME280;53789;51.392;10.234;2022-07-29T00:12:00;98400.16;;;17.13;45.85
66880;BME280;53789;51.392;10.234;2022-07-29T00:12:23;98402.56;;;17.15;46.85
66880;BME280;53789;51.392;10.234;2022-07-29T00:13:07;98407.34;;;17.14;46.92
66880;BME280;53789;51.392;10.234;2022-07-29T00:13:28;98404.91;;;17.13;46.91
66880;BME280;53789;51.392;10.234;2022-07-29T00:13:48;98402.94;;;17.13;46.09
66880;BME280;53789;51.392;10.234;2022-07-29T00:14:09;98406.88;;;17.12;46.10
66880;BME280;53789;51.392;10.234;2022-07-29T00:14:29;98401.66;;;17.11;46.17
66880;BME280;53789;51.392;10.234;2022-07-29T00:14:50;98410.00;;;17.11;46.46
66880;BME280;53789;51.392;10.234;2022-07-29T00:15:10;98404.78;;;17.09;46.33
66880;BME280;53789;51.392;10.234;2022-07-29T00:15:31;98406.75;;;17.08;47.08
66880;BME280;53789;51.392;10.234;2022-07-29T00:15:51;98401.53;;;17.07;47.17
66880;BME280;53789;51.392;10.234;2022-07-29T00:16:11;98402.69;;;17.06;46.49
66880;BME280;53789;51.392;10.234;2022-07-29T00:16:31;98400.38;;;17.08;46.82
66880;BME280;53789;51.392;10.234;2022-07-29T00:16:52;98411.50;;;17.08;46.25
66880;BME280;53789;51.392;10.234;2022-07-29T00:18:12;98401.88;;;17.05;46.17
66880;BME280;53789;51.392;10.234;2022-07-29T00:18:33;98401.88;;;17.05;46.67
66880;BME280;53789;51.392;10.234;2022-07-29T00:18:53;98401.88;;;17.05;46.04
66880;BME280;53789;51.392;10.234;2022-07-29T00:19:13;98399.44;;;17.04;46.33
66880;BME280;53789;51.392;10.234;2022-07-29T00:19:34;98400.25;;;17.04;46.84
66880;BME280;53789;51.392;10.234;2022-07-29T00:20:18;98401.09;;;17.05;46.17
66880;BME280;53789;51.392;10.234;2022-07-29T00:20:39;98387.53;;;17.03;46.64
66880;BME280;53789;51.392;10.234;2022-07-29T00:20:59;98394.69;;;17.04;46.26
66880;BME280;53789;51.392;10.234;2022-07-29T00:21:44;98399.44;;;17.04;46.21
66880;BME280;53789;51.392;10.234;2022-07-29T00:22:04;98392.25;;;17.03;46.42
66880;BME280;53789;51.392;10.234;2022-07-29T00:22:24;98387.53;;;17.03;47.14
66880;BME280;53789;51.392;10.234;2022-07-29T00:22:45;98400.16;;;17.01;47.32
66880;BME280;53789;51.392;10.234;2022-07-29T00:23:05;98398.50;;;17.00;47.42
66880;BME280;53789;51.392;10.234;2022-07-29T00:23:25;98395.28;;;16.98;46.57
66880;BME280;53789;51.392;10.234;2022-07-29T00:23:46;98393.31;;;16.98;46.35
66880;BME280;53789;51.392;10.234;2022-07-29T00:24:06;98401.63;;;16.98;46.82
66880;BME280;53789;51.392;10.234;2022-07-29T00:24:27;98393.31;;;16.98;47.03
66880;BME280;53789;51.392;10.234;2022-07-29T00:24:48;98392.50;;;16.98;46.76
66880;BME280;53789;51.392;10.234;2022-07-29T00:25:08;98391.22;;;16.95;46.48
66880;BME280;53789;51.392;10.234;2022-07-29T00:25:29;98395.16;;;16.94;46.88
66880;BME280;53789;51.392;10.234;2022-07-29T00:25:49;98391.22;;;16.95;47.13
66880;BME280;53789;51.392;10.234;2022-07-29T00:26:09;98397.13;;;16.94;46.34
66880;BME280;53789;51.392;10.234;2022-07-29T00:26:30;98388.00;;;16.93;46.56
66880;BME280;53789;51.392;10.234;2022-07-29T00:26:50;98390.75;;;16.93;46.75
66880;BME280;53789;51.392;10.234;2022-07-29T00:27:10;98394.34;;;16.94;46.60
66880;BME280;53789;51.392;10.234;2022-07-29T00:27:31;98391.91;;;16.92;46.54
66880;BME280;53789;51.392;10.234;2022-07-29T00:27:51;98389.94;;;16.93;46.75
66880;BME280;53789;51.392;10.234;2022-07-29T00:28:11;98389.94;;;16.93;46.94
66880;BME280;53789;51.392;10.234;2022-07-29T00:28:32;98392.72;;;16.93;46.93
66880;BME280;53789;51.392;10.234;2022-07-29T00:28:52;98396.66;;;16.92;47.46
66880;BME280;53789;51.392;10.234;2022-07-29T00:29:12;98397.47;;;16.92;46.75
66880;BME280;53789;51.392;10.234;2022-07-29T00:29:32;98401.41;;;16.91;47.13
66880;BME280;53789;51.392;10.234;2022-07-29T00:29:53;98389.13;;;16.92;46.64
66880;BME280;53789;51.392;10.234;2022-07-29T00:30:13;98394.69;;;16.92;47.11
66880;BME280;53789;51.392;10.234;2022-07-29T00:30:34;98391.91;;;16.92;47.05
66880;BME280;53789;51.392;10.234;2022-07-29T00:30:54;98395.84;;;16.91;46.91
66880;BME280;53789;51.392;10.234;2022-07-29T00:31:14;98395.34;;;16.89;47.25
66880;BME280;53789;51.392;10.234;2022-07-29T00:31:34;98393.72;;;16.88;47.68
66880;BME280;53789;51.392;10.234;2022-07-29T00:31:55;98394.91;;;16.87;46.73
66880;BME280;53789;51.392;10.234;2022-07-29T00:32:15;98390.13;;;16.87;47.86
66880;BME280;53789;51.392;10.234;2022-07-29T00:32:35;98392.91;;;16.87;47.56
66880;BME280;53789;51.392;10.234;2022-07-29T00:32:56;98389.69;;;16.85;47.91
66880;BME280;53789;51.392;10.234;2022-07-29T00:33:16;98377.75;;;16.85;47.80
66880;BME280;53789;51.392;10.234;2022-07-29T00:33:36;98387.22;;;16.84;47.53
66880;BME280;53789;51.392;10.234;2022-07-29T00:33:57;98386.44;;;16.83;46.87
66880;BME280;53789;51.392;10.234;2022-07-29T00:34:17;98394.75;;;16.83;46.98
66880;BME280;53789;51.392;10.234;2022-07-29T00:34:37;98389.19;;;16.83;47.77
66880;BME280;53789;51.392;10.234;2022-07-29T00:34:58;98395.91;;;16.82;46.78
66880;BME280;53789;51.392;10.234;2022-07-29T00:35:48;98390.69;;;16.81;47.95
66880;BME280;53789;51.392;10.234;2022-07-29T00:36:08;98393.00;;;16.79;47.31
66880;BME280;53789;51.392;10.234;2022-07-29T00:36:29;98387.81;;;16.77;47.31
66880;BME280;53789;51.392;10.234;2022-07-29T00:36:49;98388.59;;;16.78;48.24
66880;BME280;53789;51.392;10.234;2022-07-29T00:37:09;98391.38;;;16.78;47.54
66880;BME280;53789;51.392;10.234;2022-07-29T00:37:30;98388.97;;;16.76;47.40
66880;BME280;53789;51.392;10.234;2022-07-29T00:37:51;98390.13;;;16.75;47.64
66880;BME280;53789;51.392;10.234;2022-07-29T00:38:17;98392.91;;;16.75;48.15
66880;BME280;53789;51.392;10.234;2022-07-29T00:38:38;98394.06;;;16.74;47.56
66880;BME280;53789;51.392;10.234;2022-07-29T00:38:58;98392.41;;;16.73;47.85
66880;BME280;53789;51.392;10.234;2022-07-29T00:39:18;98384.09;;;16.73;47.50
66880;BME280;53789;51.392;10.234;2022-07-29T00:39:38;98396.03;;;16.73;47.44
66880;BME280;53789;51.392;10.234;2022-07-29T00:39:59;98388.84;;;16.72;47.33
66880;BME280;53789;51.392;10.234;2022-07-29T00:40:19;98391.63;;;16.72;47.13
66880;BME280;53789;51.392;10.234;2022-07-29T00:40:40;98389.66;;;16.73;47.23
66880;BME280;53789;51.392;10.234;2022-07-29T00:41:01;98396.34;;;16.72;47.87
66880;BME280;53789;51.392;10.234;2022-07-29T00:41:47;98397.97;;;16.73;47.69
66880;BME280;53789;51.392;10.234;2022-07-29T00:43:01;98392.41;;;16.73;48.04
66880;BME280;53789;51.392;10.234;2022-07-29T00:43:21;98401.91;;;16.72;47.62
66880;BME280;53789;51.392;10.234;2022-07-29T00:43:42;98397.19;;;16.72;47.21
66880;BME280;53789;51.392;10.234;2022-07-29T00:44:02;98392.75;;;16.71;48.02
66880;BME280;53789;51.392;10.234;2022-07-29T00:44:23;98393.56;;;16.72;47.41
66880;BME280;53789;51.392;10.234;2022-07-29T00:44:43;98394.41;;;16.72;47.41
66880;BME280;53789;51.392;10.234;2022-07-29T00:45:04;98391.63;;;16.72;48.16
66880;BME280;53789;51.392;10.234;2022-07-29T00:45:24;98390.78;;;16.72;48.13
66880;BME280;53789;51.392;10.234;2022-07-29T00:45:44;98387.22;;;16.71;47.93
66880;BME280;53789;51.392;10.234;2022-07-29T00:46:05;98384.44;;;16.71;47.53
66880;BME280;53789;51.392;10.234;2022-07-29T00:46:25;98385.22;;;16.72;47.90
66880;BME280;53789;51.392;10.234;2022-07-29T00:46:45;98386.41;;;16.71;47.86
66880;BME280;53789;51.392;10.234;2022-07-29T00:47:07;98384.78;;;16.70;47.78
66880;BME280;53789;51.392;10.234;2022-07-29T00:47:27;98390.34;;;16.70;47.63
66880;BME280;53789;51.392;10.234;2022-07-29T00:47:48;98388.34;;;16.70;47.90
66880;BME280;53789;51.392;10.234;2022-07-29T00:48:09;98386.75;;;16.69;47.87
66880;BME280;53789;51.392;10.234;2022-07-29T00:48:29;98387.91;;;16.68;48.64
66880;BME280;53789;51.392;10.234;2022-07-29T00:48:49;98387.91;;;16.68;48.00
66880;BME280;53789;51.392;10.234;2022-07-29T00:49:10;98392.66;;;16.68;47.84
66880;BME280;53789;51.392;10.234;2022-07-29T00:49:30;98385.47;;;16.67;47.90
66880;BME280;53789;51.392;10.234;2022-07-29T00:49:51;98389.06;;;16.67;48.02
66880;BME280;53789;51.392;10.234;2022-07-29T00:50:13;98394.16;;;16.65;47.90
66880;BME280;53789;51.392;10.234;2022-07-29T00:50:34;98391.03;;;16.67;48.31
66880;BME280;53789;51.392;10.234;2022-07-29T00:50:57;98381.91;;;16.66;47.19
66880;BME280;53789;51.392;10.234;2022-07-29T00:51:17;98381.91;;;16.66;47.54
66880;BME280;53789;51.392;10.234;2022-07-29T00:51:39;98385.00;;;16.65;47.52
66880;BME280;53789;51.392;10.234;2022-07-29T00:52:01;98381.75;;;16.63;47.64
66880;BME280;53789;51.392;10.234;2022-07-29T00:52:21;98384.53;;;16.63;47.51
66880;BME280;53789;51.392;10.234;2022-07-29T00:52:42;98389.28;;;16.62;48.10
66880;BME280;53789;51.392;10.234;2022-07-29T00:53:04;98384.88;;;16.61;47.58
66880;BME280;53789;51.392;10.234;2022-07-29T00:53:25;98383.59;;;16.59;47.75
66880;BME280;53789;51.392;10.234;2022-07-29T00:53:46;98376.09;;;16.59;48.23
66880;BME280;53789;51.392;10.234;2022-07-29T00:54:07;98386.72;;;16.57;47.84
66880;BME280;53789;51.392;10.234;2022-07-29T00:54:27;98386.72;;;16.57;47.37
66880;BME280;53789;51.392;10.234;2022-07-29T00:54:48;98383.13;;;16.56;47.19
66880;BME280;53789;51.392;10.234;2022-07-29T00:55:12;98379.56;;;16.56;47.68
66880;BME280;53789;51.392;10.234;2022-07-29T00:55:33;98383.47;;;16.55;47.88
66880;BME280;53789;51.392;10.234;2022-07-29T00:55:54;98379.06;;;16.54;48.11
66880;BME280;53789;51.392;10.234;2022-07-29T00:56:14;98381.84;;;16.54;48.13
66880;BME280;53789;51.392;10.234;2022-07-29T00:56:35;98386.59;;;16.53;47.66
66880;BME280;53789;51.392;10.234;2022-07-29T00:56:58;98382.53;;;16.51;48.16
66880;BME280;53789;51.392;10.234;2022-07-29T00:57:19;98376.19;;;16.50;47.75
66880;BME280;53789;51.392;10.234;2022-07-29T00:57:42;98379.28;;;16.49;47.40
66880;BME280;53789;51.392;10.234;2022-07-29T00:58:02;98383.22;;;16.48;48.17
66880;BME280;53789;51.392;10.234;2022-07-29T00:58:24;98382.06;;;16.49;47.64
66880;BME280;53789;51.392;10.234;2022-07-29T00:58:47;98378.00;;;16.46;48.27
66880;BME280;53789;51.392;10.234;2022-07-29T00:59:10;98383.56;;;16.46;48.06
66880;BME280;53789;51.392;10.234;2022-07-29T00:59:31;98375.56;;;16.45;47.97
66880;BME280;53789;51.392;10.234;2022-07-29T00:59:51;98372.81;;;16.45;48.30
66880;BME280;53789;51.392;10.234;2022-07-29T01:00:16;98375.56;;;16.45;47.62
66880;BME280;53789;51.392;10.234;2022-07-29T01:01:07;98375.91;;;16.43;48.01
66880;BME280;53789;51.392;10.234;2022-07-29T01:01:27;98378.25;;;16.41;47.91
66880;BME280;53789;51.392;10.234;2022-07-29T01:01:47;98376.59;;;16.40;47.98
66880;BME280;53789;51.392;10.234;2022-07-29T01:02:08;98377.41;;;16.41;47.89
66880;BME280;53789;51.392;10.234;2022-07-29T01:02:28;98371.84;;;16.41;48.52
66880;BME280;53789;51.392;10.234;2022-07-29T01:02:49;98364.72;;;16.40;48.63
66880;BME280;53789;51.392;10.234;2022-07-29T01:03:09;98371.84;;;16.41;47.96
66880;BME280;53789;51.392;10.234;2022-07-29T01:03:29;98367.47;;;16.40;47.89
66880;BME280;53789;51.392;10.234;2022-07-29T01:03:50;98361.44;;;16.37;48.21
66880;BME280;53789;51.392;10.234;2022-07-29T01:04:10;98368.63;;;16.38;48.42
66880;BME280;53789;51.392;10.234;2022-07-29T01:04:31;98378.09;;;16.37;48.41
66880;BME280;53789;51.392;10.234;2022-07-29T01:04:53;98365.34;;;16.36;48.76
66880;BME280;53789;51.392;10.234;2022-07-29T01:05:15;98366.19;;;16.37;48.13
66880;BME280;53789;51.392;10.234;2022-07-29T01:05:41;98365.34;;;16.36;48.29
66880;BME280;53789;51.392;10.234;2022-07-29T01:06:02;98368.13;;;16.36;48.47
66880;BME280;53789;51.392;10.234;2022-07-29T01:06:24;98371.25;;;16.35;48.37
66880;BME280;53789;51.392;10.234;2022-07-29T01:06:45;98368.47;;;16.35;48.47
66880;BME280;53789;51.392;10.234;2022-07-29T01:07:06;98367.69;;;16.34;48.85
66880;BME280;53789;51.392;10.234;2022-07-29T01:07:29;98362.47;;;16.33;48.60
66880;BME280;53789;51.392;10.234;2022-07-29T01:07:54;98365.25;;;16.33;48.13
66880;BME280;53789;51.392;10.234;2022-07-29T01:08:15;98361.66;;;16.32;48.66
66880;BME280;53789;51.392;10.234;2022-07-29T01:08:37;98362.81;;;16.31;48.49
66880;BME280;53789;51.392;10.234;2022-07-29T01:08:59;98355.28;;;16.32;48.97
66880;BME280;53789;51.392;10.234;2022-07-29T01:09:21;98360.84;;;16.32;48.14
66880;BME280;53789;51.392;10.234;2022-07-29T01:09:44;98364.78;;;16.31;48.47
66880;BME280;53789;51.392;10.234;2022-07-29T01:10:07;98358.41;;;16.30;49.22
66880;BME280;53789;51.392;10.234;2022-07-29T01:10:30;98360.72;;;16.28;48.65
66880;BME280;53789;51.392;10.234;2022-07-29T01:10:50;98362.69;;;16.28;49.18
66880;BME280;53789;51.392;10.234;2022-07-29T01:11:12;98361.88;;;16.27;48.36
66880;BME280;53789;51.392;10.234;2022-07-29T01:11:35;98355.53;;;16.27;48.88
66880;BME280;53789;51.392;10.234;2022-07-29T01:11:55;98355.53;;;16.27;48.94
66880;BME280;53789;51.392;10.234;2022-07-29T01:12:58;98363.34;;;16.25;49.18
66880;BME280;53789;51.392;10.234;2022-07-29T01:13:20;98358.16;;;16.23;48.56
66880;BME280;53789;51.392;10.234;2022-07-29T01:13:41;98356.19;;;16.24;48.50
66880;BME280;53789;51.392;10.234;2022-07-29T01:14:05;98356.06;;;16.20;48.98
66880;BME280;53789;51.392;10.234;2022-07-29T01:14:28;98357.69;;;16.21;48.66
66880;BME280;53789;51.392;10.234;2022-07-29T01:14:50;98354.91;;;16.21;48.80
66880;BME280;53789;51.392;10.234;2022-07-29T01:15:11;98351.69;;;16.19;49.34
66880;BME280;53789;51.392;10.234;2022-07-29T01:15:47;98346.47;;;16.17;48.77
66880;BME280;53789;51.392;10.234;2022-07-29T01:16:15;98350.38;;;16.16;49.08
66880;BME280;53789;51.392;10.234;2022-07-29T01:17:39;98346.81;;;16.16;49.06
66880;BME280;53789;51.392;10.234;2022-07-29T01:18:20;98342.88;;;16.17;48.95
66880;BME280;53789;51.392;10.234;2022-07-29T01:18:47;98339.28;;;16.16;49.18
66880;BME280;53789;51.392;10.234;2022-07-29T01:19:29;98341.25;;;16.16;49.46
66880;BME280;53789;51.392;10.234;2022-07-29T01:21:55;98346.81;;;16.16;49.35
66880;BME280;53789;51.392;10.234;2022-07-29T01:24:14;98343.22;;;16.15;49.32
66880;BME280;53789;51.392;10.234;2022-07-29T01:27:58;98339.19;;;16.13;49.32
66880;BME280;53789;51.392;10.234;2022-07-29T01:29:16;98335.22;;;16.14;49.77
66880;BME280;53789;51.392;10.234;2022-07-29T01:29:54;98340.78;;;16.14;49.07
66880;BME280;53789;51.392;10.234;2022-07-29T01:30:15;98336.06;;;16.14;49.66
66880;BME280;53789;51.392;10.234;2022-07-29T01:30:38;98332.47;;;16.14;49.43
66880;BME280;53789;51.392;10.234;2022-07-29T01:32:19;98342.41;;;16.15;49.19
66880;BME280;53789;51.392;10.234;2022-07-29T01:32:42;98336.53;;;16.16;49.42
66880;BME280;53789;51.392;10.234;2022-07-29T01:33:15;98336.84;;;16.15;49.29
66880;BME280;53789;51.392;10.234;2022-07-29T01:33:41;98340.44;;;16.15;49.76
66880;BME280;53789;51.392;10.234;2022-07-29T01:34:06;98333.75;;;16.16;49.77
66880;BME280;53789;51.392;10.234;2022-07-29T01:34:45;98340.44;;;16.15;49.36
66880;BME280;53789;51.392;10.234;2022-07-29T01:35:22;98331.78;;;16.17;49.55
66880;BME280;53789;51.392;10.234;2022-07-29T01:35:45;98334.53;;;16.17;49.30
66880;BME280;53789;51.392;10.234;2022-07-29T01:36:11;98336.19;;;16.18;49.30
66880;BME280;53789;51.392;10.234;2022-07-29T01:38:25;98334.34;;;16.22;49.21
66880;BME280;53789;51.392;10.234;2022-07-29T01:39:02;98332.81;;;16.25;49.62
66880;BME280;53789;51.392;10.234;2022-07-29T01:39:33;98335.59;;;16.25;49.30
66880;BME280;53789;51.392;10.234;2022-07-29T01:39:57;98325.00;;;16.27;49.40
66880;BME280;53789;51.392;10.234;2022-07-29T01:41:05;98331.81;;;16.29;49.01
66880;BME280;53789;51.392;10.234;2022-07-29T01:41:31;98331.34;;;16.27;49.23
66880;BME280;53789;51.392;10.234;2022-07-29T01:42:23;98332.63;;;16.30;49.12
66880;BME280;53789;51.392;10.234;2022-07-29T01:42:58;98338.19;;;16.30;48.93
66880;BME280;53789;51.392;10.234;2022-07-29T01:43:23;98338.97;;;16.30;49.57
66880;BME280;53789;51.392;10.234;2022-07-29T01:44:01;98338.97;;;16.30;49.45
66880;BME280;53789;51.392;10.234;2022-07-29T01:44:33;98343.72;;;16.30;48.95
66880;BME280;53789;51.392;10.234;2022-07-29T01:44:57;98334.94;;;16.28;49.15
66880;BME280;53789;51.392;10.234;2022-07-29T01:45:47;98331.81;;;16.29;49.99
66880;BME280;53789;51.392;10.234;2022-07-29T01:46:25;98338.97;;;16.30;49.00
66880;BME280;53789;51.392;10.234;2022-07-29T01:46:54;98337.84;;;16.31;49.41
66880;BME280;53789;51.392;10.234;2022-07-29T01:47:20;98339.47;;;16.32;48.91
66880;BME280;53789;51.392;10.234;2022-07-29T01:48:24;98330.31;;;16.32;48.87
66880;BME280;53789;51.392;10.234;2022-07-29T01:48:57;98336.34;;;16.34;48.94
66880;BME280;53789;51.392;10.234;2022-07-29T01:49:28;98335.19;;;16.35;48.72
66880;BME280;53789;51.392;10.234;2022-07-29T01:49:52;98337.59;;;16.36;49.08
66880;BME280;53789;51.392;10.234;2022-07-29T01:50:17;98330.44;;;16.35;49.03
66880;BME280;53789;51.392;10.234;2022-07-29T01:51:20;98329.28;;;16.36;48.97
66880;BME280;53789;51.392;10.234;2022-07-29T01:51:51;98333.69;;;16.37;49.45
66880;BME280;53789;51.392;10.234;2022-07-29T01:52:24;98331.41;;;16.40;49.34
66880;BME280;53789;51.392;10.234;2022-07-29T01:53:01;98321.91;;;16.41;48.85
66880;BME280;53789;51.392;10.234;2022-07-29T01:54:04;98325.97;;;16.43;48.92
66880;BME280;53789;51.392;10.234;2022-07-29T01:54:46;98332.31;;;16.44;48.73
66880;BME280;53789;51.392;10.234;2022-07-29T01:55:13;98328.38;;;16.45;48.59
66880;BME280;53789;51.392;10.234;2022-07-29T01:55:39;98325.63;;;16.45;48.95
66880;BME280;53789;51.392;10.234;2022-07-29T01:56:02;98329.19;;;16.45;48.43
66880;BME280;53789;51.392;10.234;2022-07-29T01:57:29;98327.69;;;16.48;48.46
66880;BME280;53789;51.392;10.234;2022-07-29T01:57:51;98322.16;;;16.48;48.76
66880;BME280;53789;51.392;10.234;2022-07-29T01:58:14;98323.28;;;16.47;48.87
66880;BME280;53789;51.392;10.234;2022-07-29T01:58:41;98324.13;;;16.47;48.94
66880;BME280;53789;51.392;10.234;2022-07-29T01:59:07;98327.69;;;16.48;48.38
66880;BME280;53789;51.392;10.234;2022-07-29T01:59:29;98327.69;;;16.48;48.17
66880;BME280;53789;51.392;10.234;2022-07-29T01:59:53;98329.31;;;16.49;48.75
66880;BME280;53789;51.392;10.234;2022-07-29T02:00:15;98323.78;;;16.49;48.42
66880;BME280;53789;51.392;10.234;2022-07-29T02:00:38;98325.72;;;16.48;48.65
66880;BME280;53789;51.392;10.234;2022-07-29T02:01:02;98322.16;;;16.48;48.91
66880;BME280;53789;51.392;10.234;2022-07-29T02:01:25;98324.91;;;16.48;48.30
66880;BME280;53789;51.392;10.234;2022-07-29T02:01:48;98326.91;;;16.47;48.38
66880;BME280;53789;51.392;10.234;2022-07-29T02:02:42;98326.91;;;16.47;48.88
66880;BME280;53789;51.392;10.234;2022-07-29T02:03:09;98332.44;;;16.47;48.49
66880;BME280;53789;51.392;10.234;2022-07-29T02:03:33;98324.91;;;16.48;48.70
66880;BME280;53789;51.392;10.234;2022-07-29T02:03:57;98324.13;;;16.47;48.40
66880;BME280;53789;51.392;10.234;2022-07-29T02:04:20;98325.72;;;16.48;49.08
66880;BME280;53789;51.392;10.234;2022-07-29T02:04:42;98323.78;;;16.49;49.77
66880;BME280;53789;51.392;10.234;2022-07-29T02:05:07;98331.75;;;16.50;49.07
66880;BME280;53789;51.392;10.234;2022-07-29T02:05:32;98327.00;;;16.51;49.41
66880;BME280;53789;51.392;10.234;2022-07-29T02:05:56;98323.44;;;16.50;48.60
66880;BME280;53789;51.392;10.234;2022-07-29T02:06:21;98326.22;;;16.50;48.40
66880;BME280;53789;51.392;10.234;2022-07-29T02:06:44;98330.63;;;16.51;48.88
66880;BME280;53789;51.392;10.234;2022-07-29T02:07:12;98323.09;;;16.52;48.94
66880;BME280;53789;51.392;10.234;2022-07-29T02:07:58;98329.44;;;16.52;48.85
66880;BME280;53789;51.392;10.234;2022-07-29T02:08:21;98329.44;;;16.52;48.46
66880;BME280;53789;51.392;10.234;2022-07-29T02:08:45;98329.44;;;16.52;48.74
66880;BME280;53789;51.392;10.234;2022-07-29T02:09:09;98329.78;;;16.51;48.20
66880;BME280;53789;51.392;10.234;2022-07-29T02:09:32;98326.66;;;16.52;48.21
66880;BME280;53789;51.392;10.234;2022-07-29T02:09:57;98330.28;;;16.53;49.07
66880;BME280;53789;51.392;10.234;2022-07-29T02:10:22;98325.53;;;16.53;49.22
66880;BME280;53789;51.392;10.234;2022-07-29T02:10:45;98324.72;;;16.53;49.02
66880;BME280;53789;51.392;10.234;2022-07-29T02:11:08;98323.88;;;16.52;48.66
66880;BME280;53789;51.392;10.234;2022-07-29T02:11:32;98327.84;;;16.51;48.45
66880;BME280;53789;51.392;10.234;2022-07-29T02:11:55;98321.13;;;16.52;48.56
66880;BME280;53789;51.392;10.234;2022-07-29T02:12:18;98323.09;;;16.52;48.30
66880;BME280;53789;51.392;10.234;2022-07-29T02:12:42;98330.28;;;16.53;49.11
66880;BME280;53789;51.392;10.234;2022-07-29T02:13:05;98327.50;;;16.53;48.32
66880;BME280;53789;51.392;10.234;2022-07-29T02:13:28;98321.13;;;16.52;48.92
66880;BME280;53789;51.392;10.234;2022-07-29T02:13:52;98323.09;;;16.52;49.15
66880;BME280;53789;51.392;10.234;2022-07-29T02:14:18;98315.56;;;16.52;48.44
66880;BME280;53789;51.392;10.234;2022-07-29T02:14:46;98313.63;;;16.53;49.07
66880;BME280;53789;51.392;10.234;2022-07-29T02:15:08;98323.88;;;16.52;49.02
66880;BME280;53789;51.392;10.234;2022-07-29T02:15:32;98320.31;;;16.52;48.67
66880;BME280;53789;51.392;10.234;2022-07-29T02:15:55;98313.63;;;16.53;48.58
66880;BME280;53789;51.392;10.234;2022-07-29T02:16:21;98321.94;;;16.53;48.73
66880;BME280;53789;51.392;10.234;2022-07-29T02:16:44;98318.34;;;16.52;48.94
66880;BME280;53789;51.392;10.234;2022-07-29T02:17:07;98319.16;;;16.53;48.76
66880;BME280;53789;51.392;10.234;2022-07-29T02:17:33;98310.34;;;16.51;48.64
66880;BME280;53789;51.392;10.234;2022-07-29T02:18:01;98315.91;;;16.51;48.35
66880;BME280;53789;51.392;10.234;2022-07-29T02:18:24;98317.09;;;16.50;49.33
66880;BME280;53789;51.392;10.234;2022-07-29T02:18:48;98312.69;;;16.49;49.14
66880;BME280;53789;51.392;10.234;2022-07-29T02:19:11;98313.38;;;16.46;48.35
66880;BME280;53789;51.392;10.234;2022-07-29T02:20:04;98310.25;;;16.47;48.89
66880;BME280;53789;51.392;10.234;2022-07-29T02:20:26;98310.59;;;16.46;49.04
66880;BME280;53789;51.392;10.234;2022-07-29T02:20:50;98310.59;;;16.46;48.53
66880;BME280;53789;51.392;10.234;2022-07-29T02:21:15;98317.75;;;16.47;48.84
66880;BME280;53789;51.392;10.234;2022-07-29T02:21:40;98306.97;;;16.45;48.92
66880;BME280;53789;51.392;10.234;2022-07-29T02:22:03;98310.59;;;16.46;48.55
66880;BME280;53789;51.392;10.234;2022-07-29T02:22:29;98309.75;;;16.45;48.97
66880;BME280;53789;51.392;10.234;2022-07-29T02:22:52;98310.09;;;16.44;49.19
66880;BME280;53789;51.392;10.234;2022-07-29T02:23:18;98309.31;;;16.43;49.28
66880;BME280;53789;51.392;10.234;2022-07-29T02:23:38;98313.22;;;16.42;49.11
66880;BME280;53789;51.392;10.234;2022-07-29T02:24:00;98309.31;;;16.43;49.27
66880;BME280;53789;51.392;10.234;2022-07-29T02:24:24;98308.50;;;16.43;49.05
66880;BME280;53789;51.392;10.234;2022-07-29T02:24:46;98306.53;;;16.43;49.49
66880;BME280;53789;51.392;10.234;2022-07-29T02:25:10;98304.91;;;16.42;49.05
66880;BME280;53789;51.392;10.234;2022-07-29T02:25:31;98305.25;;;16.41;48.80
66880;BME280;53789;51.392;10.234;2022-07-29T02:26:17;98304.44;;;16.40;48.94
66880;BME280;53789;51.392;10.234;2022-07-29T02:26:41;98304.44;;;16.40;48.68
66880;BME280;53789;51.392;10.234;2022-07-29T02:27:03;98314.75;;;16.40;48.91
66880;BME280;53789;51.392;10.234;2022-07-29T02:27:27;98301.66;;;16.40;49.35
66880;BME280;53789;51.392;10.234;2022-07-29T02:28:16;98304.78;;;16.38;49.17
66880;BME280;53789;51.392;10.234;2022-07-29T02:28:40;98304.78;;;16.38;48.95